sensor_id;sensor_type;location;lat;lon;timestamp;P1;durP1;ratioP1;P2;durP2;ratioP2
10230;SDS011;62604;49.432;8.680;2023-07-08T00:00:50;6.57;;;5.72;;
10230;SDS011;62604;49.432;8.680;2023-07-08T00:03:18;5.93;;;5.43;;
10230;SDS011;62604;49.432;8.680;2023-07-08T00:05:46;6.28;;;5.68;;
10230;SDS011;62604;49.432;8.680;2023-07-08T00:08:14;6.28;;;5.68;;
10230;SDS011;62604;49.432;8.680;2023-07-08T00:10:43;7.28;;;5.93;;
10230;SDS011;62604;49.432;8.680;2023-07-08T00:13:10;6.30;;;5.53;;
10230;SDS011;62604;49.432;8.680;2023-07-08T00:15:39;5.90;;;5.30;;
10230;SDS011;62604;49.432;8.680;2023-07-08T00:18:09;6.60;;;5.32;;
10230;SDS011;62604;49.432;8.680;2023-07-08T00:20:38;7.75;;;5.00;;
10230;SDS011;62604;49.432;8.680;2023-07-08T00:23:07;6.57;;;5.88;;
10230;SDS011;62604;49.432;8.680;2023-07-08T00:25:35;7.03;;;5.47;;
10230;SDS011;62604;49.432;8.680;2023-07-08T00:28:04;7.40;;;5.38;;
10230;SDS011;62604;49.432;8.680;2023-07-08T00:30:34;9.32;;;5.57;;
10230;SDS011;62604;49.432;8.680;2023-07-08T00:33:02;6.50;;;5.15;;
10230;SDS011;62604;49.432;8.680;2023-07-08T00:35:31;7.00;;;5.60;;
10230;SDS011;62604;49.432;8.680;2023-07-08T00:38:00;5.60;;;5.05;;
10230;SDS011;62604;49.432;8.680;2023-07-08T00:40:28;6.30;;;5.15;;
10230;SDS011;62604;49.432;8.680;2023-07-08T00:42:56;6.15;;;5.05;;
10230;SDS011;62604;49.432;8.680;2023-07-08T00:45:31;10.30;;;6.00;;
10230;SDS011;62604;49.432;8.680;2023-07-08T00:48:07;6.45;;;5.45;;
10230;SDS011;62604;49.432;8.680;2023-07-08T00:50:41;8.52;;;5.57;;
10230;SDS011;62604;49.432;8.680;2023-07-08T00:53:22;7.97;;;5.78;;
10230;SDS011;62604;49.432;8.680;2023-07-08T00:55:50;6.10;;;5.55;;
10230;SDS011;62604;49.432;8.680;2023-07-08T00:58:19;6.03;;;5.43;;
10230;SDS011;62604;49.432;8.680;2023-07-08T01:00:47;7.30;;;5.45;;
10230;SDS011;62604;49.432;8.680;2023-07-08T01:03:16;7.50;;;5.63;;
10230;SDS011;62604;49.432;8.680;2023-07-08T01:05:45;6.20;;;5.60;;
10230;SDS011;62604;49.432;8.680;2023-07-08T01:08:13;6.60;;;5.90;;
10230;SDS011;62604;49.432;8.680;2023-07-08T01:10:43;6.53;;;5.85;;
10230;SDS011;62604;49.432;8.680;2023-07-08T01:13:12;5.95;;;5.35;;
10230;SDS011;62604;49.432;8.680;2023-07-08T01:15:42;6.63;;;5.78;;
10230;SDS011;62604;49.432;8.680;2023-07-08T01:18:11;7.78;;;5.78;;
10230;SDS011;62604;49.432;8.680;2023-07-08T01:20:43;6.22;;;5.50;;
10230;SDS011;62604;49.432;8.680;2023-07-08T01:23:13;5.47;;;5.03;;
10230;SDS011;62604;49.432;8.680;2023-07-08T01:25:41;6.05;;;5.43;;
10230;SDS011;62604;49.432;8.680;2023-07-08T01:28:09;6.88;;;5.68;;
10230;SDS011;62604;49.432;8.680;2023-07-08T01:30:36;6.10;;;5.50;;
10230;SDS011;62604;49.432;8.680;2023-07-08T01:33:04;6.47;;;5.15;;
10230;SDS011;62604;49.432;8.680;2023-07-08T01:35:38;6.13;;;5.38;;
10230;SDS011;62604;49.432;8.680;2023-07-08T01:38:05;7.13;;;5.60;;
10230;SDS011;62604;49.432;8.680;2023-07-08T01:40:38;5.28;;;4.65;;
10230;SDS011;62604;49.432;8.680;2023-07-08T01:43:15;7.22;;;5.45;;
10230;SDS011;62604;49.432;8.680;2023-07-08T01:45:42;6.25;;;5.47;;
10230;SDS011;62604;49.432;8.680;2023-07-08T01:48:10;6.40;;;5.25;;
10230;SDS011;62604;49.432;8.680;2023-07-08T01:50:40;6.22;;;5.35;;
10230;SDS011;62604;49.432;8.680;2023-07-08T01:53:13;7.47;;;5.97;;
10230;SDS011;62604;49.432;8.680;2023-07-08T01:55:43;9.13;;;5.00;;
10230;SDS011;62604;49.432;8.680;2023-07-08T01:58:10;6.93;;;5.05;;
10230;SDS011;62604;49.432;8.680;2023-07-08T02:00:38;6.90;;;4.97;;
10230;SDS011;62604;49.432;8.680;2023-07-08T02:03:05;5.80;;;5.05;;
10230;SDS011;62604;49.432;8.680;2023-07-08T02:05:31;7.72;;;5.10;;
10230;SDS011;62604;49.432;8.680;2023-07-08T02:07:58;7.32;;;5.43;;
10230;SDS011;62604;49.432;8.680;2023-07-08T02:10:25;5.47;;;4.97;;
10230;SDS011;62604;49.432;8.680;2023-07-08T02:12:54;5.72;;;5.13;;
10230;SDS011;62604;49.432;8.680;2023-07-08T02:15:20;8.25;;;4.88;;
10230;SDS011;62604;49.432;8.680;2023-07-08T02:17:47;6.32;;;5.10;;
10230;SDS011;62604;49.432;8.680;2023-07-08T02:20:15;6.22;;;5.57;;
10230;SDS011;62604;49.432;8.680;2023-07-08T02:22:42;7.53;;;5.30;;
10230;SDS011;62604;49.432;8.680;2023-07-08T02:25:09;6.25;;;5.65;;
10230;SDS011;62604;49.432;8.680;2023-07-08T02:27:36;6.78;;;5.40;;
10230;SDS011;62604;49.432;8.680;2023-07-08T02:30:05;6.28;;;5.53;;
10230;SDS011;62604;49.432;8.680;2023-07-08T02:32:34;7.82;;;5.70;;
10230;SDS011;62604;49.432;8.680;2023-07-08T02:35:04;6.70;;;5.50;;
10230;SDS011;62604;49.432;8.680;2023-07-08T02:37:31;6.30;;;5.35;;
10230;SDS011;62604;49.432;8.680;2023-07-08T02:39:58;7.68;;;5.57;;
10230;SDS011;62604;49.432;8.680;2023-07-08T02:42:26;5.65;;;5.15;;
10230;SDS011;62604;49.432;8.680;2023-07-08T02:44:53;5.68;;;5.15;;
10230;SDS011;62604;49.432;8.680;2023-07-08T02:47:21;5.88;;;5.32;;
10230;SDS011;62604;49.432;8.680;2023-07-08T02:49:48;6.05;;;5.13;;
10230;SDS011;62604;49.432;8.680;2023-07-08T02:52:15;7.95;;;5.88;;
10230;SDS011;62604;49.432;8.680;2023-07-08T02:54:42;5.50;;;4.97;;
10230;SDS011;62604;49.432;8.680;2023-07-08T02:57:09;5.60;;;5.10;;
10230;SDS011;62604;49.432;8.680;2023-07-08T02:59:36;6.60;;;5.53;;
10230;SDS011;62604;49.432;8.680;2023-07-08T03:02:03;5.88;;;5.22;;
10230;SDS011;62604;49.432;8.680;2023-07-08T03:04:32;6.15;;;5.38;;
10230;SDS011;62604;49.432;8.680;2023-07-08T03:07:00;6.20;;;5.60;;
10230;SDS011;62604;49.432;8.680;2023-07-08T03:09:27;6.20;;;5.57;;
10230;SDS011;62604;49.432;8.680;2023-07-08T03:11:54;6.82;;;5.35;;
10230;SDS011;62604;49.432;8.680;2023-07-08T03:14:21;6.32;;;5.63;;
10230;SDS011;62604;49.432;8.680;2023-07-08T03:16:48;7.00;;;5.35;;
10230;SDS011;62604;49.432;8.680;2023-07-08T03:19:15;6.68;;;5.30;;
10230;SDS011;62604;49.432;8.680;2023-07-08T03:21:43;6.93;;;5.60;;
10230;SDS011;62604;49.432;8.680;2023-07-08T03:24:10;7.10;;;5.32;;
10230;SDS011;62604;49.432;8.680;2023-07-08T03:26:38;7.20;;;5.18;;
10230;SDS011;62604;49.432;8.680;2023-07-08T03:29:05;7.40;;;5.55;;
10230;SDS011;62604;49.432;8.680;2023-07-08T03:31:35;6.15;;;5.55;;
10230;SDS011;62604;49.432;8.680;2023-07-08T03:34:01;6.00;;;5.40;;
10230;SDS011;62604;49.432;8.680;2023-07-08T03:36:29;6.45;;;5.50;;
10230;SDS011;62604;49.432;8.680;2023-07-08T03:38:57;6.25;;;5.65;;
10230;SDS011;62604;49.432;8.680;2023-07-08T03:41:25;7.20;;;5.50;;
10230;SDS011;62604;49.432;8.680;2023-07-08T03:43:52;5.93;;;5.43;;
10230;SDS011;62604;49.432;8.680;2023-07-08T03:46:19;6.20;;;5.53;;
10230;SDS011;62604;49.432;8.680;2023-07-08T03:48:48;6.38;;;5.10;;
10230;SDS011;62604;49.432;8.680;2023-07-08T03:51:16;6.38;;;5.10;;
10230;SDS011;62604;49.432;8.680;2023-07-08T03:53:47;7.20;;;5.13;;
10230;SDS011;62604;49.432;8.680;2023-07-08T03:56:16;5.53;;;4.88;;
10230;SDS011;62604;49.432;8.680;2023-07-08T03:58:43;5.80;;;5.07;;
10230;SDS011;62604;49.432;8.680;2023-07-08T04:01:12;7.80;;;5.13;;
10230;SDS011;62604;49.432;8.680;2023-07-08T04:03:41;6.45;;;5.43;;
10230;SDS011;62604;49.432;8.680;2023-07-08T04:06:08;7.65;;;5.88;;
10230;SDS011;62604;49.432;8.680;2023-07-08T04:08:35;6.43;;;5.55;;
10230;SDS011;62604;49.432;8.680;2023-07-08T04:11:02;5.60;;;5.05;;
10230;SDS011;62604;49.432;8.680;2023-07-08T04:13:31;6.53;;;5.25;;
10230;SDS011;62604;49.432;8.680;2023-07-08T04:15:59;6.60;;;5.65;;
10230;SDS011;62604;49.432;8.680;2023-07-08T04:18:30;5.60;;;5.00;;
10230;SDS011;62604;49.432;8.680;2023-07-08T04:20:57;6.22;;;5.00;;
10230;SDS011;62604;49.432;8.680;2023-07-08T04:23:24;5.63;;;5.05;;
10230;SDS011;62604;49.432;8.680;2023-07-08T04:25:52;6.43;;;5.50;;
10230;SDS011;62604;49.432;8.680;2023-07-08T04:28:21;8.18;;;6.00;;
10230;SDS011;62604;49.432;8.680;2023-07-08T04:30:50;7.07;;;5.10;;
10230;SDS011;62604;49.432;8.680;2023-07-08T04:33:17;5.47;;;4.93;;
10230;SDS011;62604;49.432;8.680;2023-07-08T04:35:44;6.65;;;5.80;;
10230;SDS011;62604;49.432;8.680;2023-07-08T04:38:14;6.78;;;5.53;;
10230;SDS011;62604;49.432;8.680;2023-07-08T04:40:46;7.28;;;5.05;;
10230;SDS011;62604;49.432;8.680;2023-07-08T04:43:14;6.03;;;5.40;;
10230;SDS011;62604;49.432;8.680;2023-07-08T04:45:41;8.27;;;5.53;;
10230;SDS011;62604;49.432;8.680;2023-07-08T04:48:12;5.60;;;5.10;;
10230;SDS011;62604;49.432;8.680;2023-07-08T04:50:40;6.55;;;5.53;;
10230;SDS011;62604;49.432;8.680;2023-07-08T04:53:08;7.35;;;5.60;;
10230;SDS011;62604;49.432;8.680;2023-07-08T04:55:36;6.20;;;5.13;;
10230;SDS011;62604;49.432;8.680;2023-07-08T04:58:04;6.45;;;5.55;;
10230;SDS011;62604;49.432;8.680;2023-07-08T05:00:31;5.80;;;5.18;;
10230;SDS011;62604;49.432;8.680;2023-07-08T05:02:58;10.05;;;5.30;;
10230;SDS011;62604;49.432;8.680;2023-07-08T05:05:26;6.15;;;5.30;;
10230;SDS011;62604;49.432;8.680;2023-07-08T05:07:53;5.90;;;5.38;;
10230;SDS011;62604;49.432;8.680;2023-07-08T05:10:20;6.78;;;5.00;;
10230;SDS011;62604;49.432;8.680;2023-07-08T05:12:47;6.20;;;5.50;;
10230;SDS011;62604;49.432;8.680;2023-07-08T05:15:16;7.43;;;5.70;;
10230;SDS011;62604;49.432;8.680;2023-07-08T05:17:43;5.78;;;5.10;;
10230;SDS011;62604;49.432;8.680;2023-07-08T05:20:11;5.85;;;5.25;;
10230;SDS011;62604;49.432;8.680;2023-07-08T05:22:40;7.68;;;5.60;;
10230;SDS011;62604;49.432;8.680;2023-07-08T05:25:09;6.53;;;5.43;;
10230;SDS011;62604;49.432;8.680;2023-07-08T05:27:37;9.52;;;5.43;;
10230;SDS011;62604;49.432;8.680;2023-07-08T05:30:04;7.20;;;4.97;;
10230;SDS011;62604;49.432;8.680;2023-07-08T05:32:32;9.40;;;5.53;;
10230;SDS011;62604;49.432;8.680;2023-07-08T05:34:59;5.93;;;5.13;;
10230;SDS011;62604;49.432;8.680;2023-07-08T05:37:26;6.65;;;5.28;;
10230;SDS011;62604;49.432;8.680;2023-07-08T05:39:55;10.32;;;5.35;;
10230;SDS011;62604;49.432;8.680;2023-07-08T05:42:25;7.10;;;5.72;;
10230;SDS011;62604;49.432;8.680;2023-07-08T05:44:52;5.47;;;5.00;;
10230;SDS011;62604;49.432;8.680;2023-07-08T05:47:20;7.30;;;5.20;;
10230;SDS011;62604;49.432;8.680;2023-07-08T05:49:47;5.72;;;5.13;;
10230;SDS011;62604;49.432;8.680;2023-07-08T05:52:14;7.03;;;5.65;;
10230;SDS011;62604;49.432;8.680;2023-07-08T05:54:41;6.20;;;5.60;;
10230;SDS011;62604;49.432;8.680;2023-07-08T05:57:10;5.60;;;5.05;;
10230;SDS011;62604;49.432;8.680;2023-07-08T05:59:37;6.68;;;5.30;;
10230;SDS011;62604;49.432;8.680;2023-07-08T06:02:05;12.73;;;6.57;;
10230;SDS011;62604;49.432;8.680;2023-07-08T06:04:33;8.40;;;6.65;;
10230;SDS011;62604;49.432;8.680;2023-07-08T06:07:00;7.53;;;6.57;;
10230;SDS011;62604;49.432;8.680;2023-07-08T06:09:27;9.73;;;6.35;;
10230;SDS011;62604;49.432;8.680;2023-07-08T06:11:54;12.05;;;6.80;;
10230;SDS011;62604;49.432;8.680;2023-07-08T06:14:22;8.13;;;6.10;;
10230;SDS011;62604;49.432;8.680;2023-07-08T06:16:49;10.25;;;6.35;;
10230;SDS011;62604;49.432;8.680;2023-07-08T06:19:16;10.15;;;6.60;;
10230;SDS011;62604;49.432;8.680;2023-07-08T06:21:43;9.07;;;6.20;;
10230;SDS011;62604;49.432;8.680;2023-07-08T06:24:10;6.97;;;6.13;;
10230;SDS011;62604;49.432;8.680;2023-07-08T06:26:37;9.65;;;6.88;;
10230;SDS011;62604;49.432;8.680;2023-07-08T06:29:04;7.45;;;6.10;;
10230;SDS011;62604;49.432;8.680;2023-07-08T06:31:32;7.38;;;6.57;;
10230;SDS011;62604;49.432;8.680;2023-07-08T06:34:00;6.57;;;5.97;;
10230;SDS011;62604;49.432;8.680;2023-07-08T06:36:27;6.55;;;5.90;;
10230;SDS011;62604;49.432;8.680;2023-07-08T06:38:54;7.82;;;5.63;;
10230;SDS011;62604;49.432;8.680;2023-07-08T06:41:20;6.90;;;5.68;;
10230;SDS011;62604;49.432;8.680;2023-07-08T06:43:47;7.25;;;5.25;;
10230;SDS011;62604;49.432;8.680;2023-07-08T06:46:14;7.03;;;5.30;;
10230;SDS011;62604;49.432;8.680;2023-07-08T06:48:43;5.97;;;5.30;;
10230;SDS011;62604;49.432;8.680;2023-07-08T06:51:10;5.93;;;5.13;;
10230;SDS011;62604;49.432;8.680;2023-07-08T06:53:37;5.85;;;5.25;;
10230;SDS011;62604;49.432;8.680;2023-07-08T06:56:04;7.05;;;5.32;;
10230;SDS011;62604;49.432;8.680;2023-07-08T06:58:30;6.88;;;5.40;;
10230;SDS011;62604;49.432;8.680;2023-07-08T07:00:57;8.15;;;5.18;;
10230;SDS011;62604;49.432;8.680;2023-07-08T07:03:25;6.40;;;4.97;;
10230;SDS011;62604;49.432;8.680;2023-07-08T07:05:53;6.50;;;5.30;;
10230;SDS011;62604;49.432;8.680;2023-07-08T07:08:20;5.82;;;5.18;;
10230;SDS011;62604;49.432;8.680;2023-07-08T07:10:47;5.72;;;5.13;;
10230;SDS011;62604;49.432;8.680;2023-07-08T07:13:14;5.80;;;5.22;;
10230;SDS011;62604;49.432;8.680;2023-07-08T07:15:41;7.82;;;5.20;;
10230;SDS011;62604;49.432;8.680;2023-07-08T07:18:08;6.18;;;5.38;;
10230;SDS011;62604;49.432;8.680;2023-07-08T07:20:36;6.25;;;5.60;;
10230;SDS011;62604;49.432;8.680;2023-07-08T07:23:05;7.47;;;5.13;;
10230;SDS011;62604;49.432;8.680;2023-07-08T07:25:32;5.88;;;5.30;;
10230;SDS011;62604;49.432;8.680;2023-07-08T07:27:59;6.28;;;5.25;;
10230;SDS011;62604;49.432;8.680;2023-07-08T07:30:26;6.00;;;5.50;;
10230;SDS011;62604;49.432;8.680;2023-07-08T07:32:53;6.53;;;5.18;;
10230;SDS011;62604;49.432;8.680;2023-07-08T07:35:19;5.95;;;5.35;;
10230;SDS011;62604;49.432;8.680;2023-07-08T07:37:48;9.57;;;5.05;;
10230;SDS011;62604;49.432;8.680;2023-07-08T07:40:16;6.30;;;5.55;;
10230;SDS011;62604;49.432;8.680;2023-07-08T07:42:44;5.35;;;4.40;;
10230;SDS011;62604;49.432;8.680;2023-07-08T07:45:11;5.20;;;4.70;;
10230;SDS011;62604;49.432;8.680;2023-07-08T07:47:39;5.57;;;5.07;;
10230;SDS011;62604;49.432;8.680;2023-07-08T07:50:07;10.30;;;5.30;;
10230;SDS011;62604;49.432;8.680;2023-07-08T08:03:38;6.15;;;5.55;;
10230;SDS011;62604;49.432;8.680;2023-07-08T08:06:05;5.10;;;4.57;;
10230;SDS011;62604;49.432;8.680;2023-07-08T08:08:32;6.43;;;5.75;;
10230;SDS011;62604;49.432;8.680;2023-07-08T08:10:59;5.53;;;5.13;;
10230;SDS011;62604;49.432;8.680;2023-07-08T08:13:25;5.97;;;5.40;;
10230;SDS011;62604;49.432;8.680;2023-07-08T08:15:55;7.38;;;5.22;;
10230;SDS011;62604;49.432;8.680;2023-07-08T08:18:22;5.90;;;5.43;;
10230;SDS011;62604;49.432;8.680;2023-07-08T08:20:51;5.90;;;5.40;;
10230;SDS011;62604;49.432;8.680;2023-07-08T08:23:18;7.85;;;5.53;;
10230;SDS011;62604;49.432;8.680;2023-07-08T08:25:45;4.90;;;4.50;;
10230;SDS011;62604;49.432;8.680;2023-07-08T08:28:12;5.05;;;4.40;;
10230;SDS011;62604;49.432;8.680;2023-07-08T08:30:38;4.43;;;4.07;;
10230;SDS011;62604;49.432;8.680;2023-07-08T08:33:05;4.90;;;4.40;;
10230;SDS011;62604;49.432;8.680;2023-07-08T08:35:32;5.13;;;4.40;;
10230;SDS011;62604;49.432;8.680;2023-07-08T08:38:01;4.70;;;4.30;;
10230;SDS011;62604;49.432;8.680;2023-07-08T08:40:29;5.90;;;4.00;;
10230;SDS011;62604;49.432;8.680;2023-07-08T08:42:59;4.40;;;4.03;;
10230;SDS011;62604;49.432;8.680;2023-07-08T08:45:29;7.70;;;4.00;;
10230;SDS011;62604;49.432;8.680;2023-07-08T08:48:03;4.10;;;3.80;;
10230;SDS011;62604;49.432;8.680;2023-07-08T08:50:35;6.18;;;3.92;;
10230;SDS011;62604;49.432;8.680;2023-07-08T08:53:14;4.50;;;4.10;;
10230;SDS011;62604;49.432;8.680;2023-07-08T08:55:46;4.35;;;3.95;;
10230;SDS011;62604;49.432;8.680;2023-07-08T08:58:30;4.43;;;4.13;;
10230;SDS011;62604;49.432;8.680;2023-07-08T09:01:12;5.38;;;4.35;;
10230;SDS011;62604;49.432;8.680;2023-07-08T09:03:43;5.75;;;3.85;;
10230;SDS011;62604;49.432;8.680;2023-07-08T09:06:15;4.60;;;4.10;;
10230;SDS011;62604;49.432;8.680;2023-07-08T09:08:49;4.60;;;4.20;;
10230;SDS011;62604;49.432;8.680;2023-07-08T09:11:20;4.32;;;3.92;;
10230;SDS011;62604;49.432;8.680;2023-07-08T09:13:53;4.45;;;4.05;;
10230;SDS011;62604;49.432;8.680;2023-07-08T09:16:25;4.50;;;4.10;;
10230;SDS011;62604;49.432;8.680;2023-07-08T09:18:58;5.35;;;3.95;;
10230;SDS011;62604;49.432;8.680;2023-07-08T09:21:28;4.07;;;3.85;;
10230;SDS011;62604;49.432;8.680;2023-07-08T09:24:02;4.15;;;3.85;;
10230;SDS011;62604;49.432;8.680;2023-07-08T09:26:35;4.07;;;3.53;;
10230;SDS011;62604;49.432;8.680;2023-07-08T09:29:04;4.18;;;3.65;;
10230;SDS011;62604;49.432;8.680;2023-07-08T09:31:36;4.63;;;3.92;;
10230;SDS011;62604;49.432;8.680;2023-07-08T09:34:06;4.30;;;4.00;;
10230;SDS011;62604;49.432;8.680;2023-07-08T09:36:38;4.95;;;4.50;;
10230;SDS011;62604;49.432;8.680;2023-07-08T09:39:11;4.75;;;4.35;;
10230;SDS011;62604;49.432;8.680;2023-07-08T09:41:40;4.47;;;4.10;;
10230;SDS011;62604;49.432;8.680;2023-07-08T09:44:16;6.38;;;4.82;;
10230;SDS011;62604;49.432;8.680;2023-07-08T09:46:48;4.35;;;3.95;;
10230;SDS011;62604;49.432;8.680;2023-07-08T09:49:16;4.13;;;3.88;;
10230;SDS011;62604;49.432;8.680;2023-07-08T09:51:44;4.55;;;4.07;;
10230;SDS011;62604;49.432;8.680;2023-07-08T09:54:15;4.65;;;4.15;;
10230;SDS011;62604;49.432;8.680;2023-07-08T09:56:43;4.88;;;4.18;;
10230;SDS011;62604;49.432;8.680;2023-07-08T09:59:13;4.80;;;4.22;;
10230;SDS011;62604;49.432;8.680;2023-07-08T10:01:48;5.10;;;4.60;;
10230;SDS011;62604;49.432;8.680;2023-07-08T10:04:15;4.90;;;4.50;;
10230;SDS011;62604;49.432;8.680;2023-07-08T10:06:45;5.22;;;4.82;;
10230;SDS011;62604;49.432;8.680;2023-07-08T10:09:14;5.40;;;4.57;;
10230;SDS011;62604;49.432;8.680;2023-07-08T10:11:46;5.72;;;4.32;;
10230;SDS011;62604;49.432;8.680;2023-07-08T10:14:20;5.35;;;4.85;;
10230;SDS011;62604;49.432;8.680;2023-07-08T10:16:52;5.50;;;5.00;;
10230;SDS011;62604;49.432;8.680;2023-07-08T10:19:19;5.25;;;4.75;;
10230;SDS011;62604;49.432;8.680;2023-07-08T10:21:49;5.72;;;5.20;;
10230;SDS011;62604;49.432;8.680;2023-07-08T10:24:36;6.03;;;5.53;;
10230;SDS011;62604;49.432;8.680;2023-07-08T10:27:25;6.07;;;5.00;;
10230;SDS011;62604;49.432;8.680;2023-07-08T10:30:01;5.10;;;4.70;;
10230;SDS011;62604;49.432;8.680;2023-07-08T10:32:42;5.57;;;5.13;;
10230;SDS011;62604;49.432;8.680;2023-07-08T10:35:18;5.72;;;5.07;;
10230;SDS011;62604;49.432;8.680;2023-07-08T10:37:51;5.10;;;4.80;;
10230;SDS011;62604;49.432;8.680;2023-07-08T10:40:33;5.90;;;5.32;;
10230;SDS011;62604;49.432;8.680;2023-07-08T10:43:09;5.35;;;4.75;;
10230;SDS011;62604;49.432;8.680;2023-07-08T10:45:53;5.55;;;5.15;;
10230;SDS011;62604;49.432;8.680;2023-07-08T10:48:50;5.70;;;5.30;;
10230;SDS011;62604;49.432;8.680;2023-07-08T10:51:30;5.80;;;5.20;;
10230;SDS011;62604;49.432;8.680;2023-07-08T10:54:07;5.70;;;5.20;;
10230;SDS011;62604;49.432;8.680;2023-07-08T10:56:52;6.07;;;5.43;;
10230;SDS011;62604;49.432;8.680;2023-07-08T10:59:28;5.75;;;5.25;;
10230;SDS011;62604;49.432;8.680;2023-07-08T11:05:11;7.57;;;5.57;;
10230;SDS011;62604;49.432;8.680;2023-07-08T11:07:50;6.03;;;5.43;;
10230;SDS011;62604;49.432;8.680;2023-07-08T11:10:22;6.57;;;5.75;;
10230;SDS011;62604;49.432;8.680;2023-07-08T11:12:56;4.93;;;4.53;;
10230;SDS011;62604;49.432;8.680;2023-07-08T11:15:28;5.82;;;5.22;;
10230;SDS011;62604;49.432;8.680;2023-07-08T11:17:58;5.40;;;4.90;;
10230;SDS011;62604;49.432;8.680;2023-07-08T11:20:31;5.72;;;5.18;;
10230;SDS011;62604;49.432;8.680;2023-07-08T11:23:04;5.82;;;5.43;;
10230;SDS011;62604;49.432;8.680;2023-07-08T11:25:39;5.60;;;5.20;;
10230;SDS011;62604;49.432;8.680;2023-07-08T11:28:11;6.13;;;5.40;;
10230;SDS011;62604;49.432;8.680;2023-07-08T11:30:41;6.93;;;5.95;;
10230;SDS011;62604;49.432;8.680;2023-07-08T11:33:11;5.40;;;4.97;;
10230;SDS011;62604;49.432;8.680;2023-07-08T11:35:40;5.80;;;5.30;;
10230;SDS011;62604;49.432;8.680;2023-07-08T11:38:11;5.90;;;5.40;;
10230;SDS011;62604;49.432;8.680;2023-07-08T11:40:51;5.50;;;5.10;;
10230;SDS011;62604;49.432;8.680;2023-07-08T11:43:21;6.50;;;5.40;;
10230;SDS011;62604;49.432;8.680;2023-07-08T11:45:51;5.18;;;4.80;;
10230;SDS011;62604;49.432;8.680;2023-07-08T11:48:22;6.43;;;5.82;;
10230;SDS011;62604;49.432;8.680;2023-07-08T11:50:52;7.25;;;5.72;;
10230;SDS011;62604;49.432;8.680;2023-07-08T11:56:20;5.07;;;4.50;;
10230;SDS011;62604;49.432;8.680;2023-07-08T11:58:58;6.07;;;5.40;;
10230;SDS011;62604;49.432;8.680;2023-07-08T12:01:45;8.52;;;4.97;;
10230;SDS011;62604;49.432;8.680;2023-07-08T12:04:23;5.25;;;4.72;;
10230;SDS011;62604;49.432;8.680;2023-07-08T12:06:54;7.30;;;5.13;;
10230;SDS011;62604;49.432;8.680;2023-07-08T12:09:44;5.05;;;4.55;;
10230;SDS011;62604;49.432;8.680;2023-07-08T12:12:16;5.20;;;4.70;;
10230;SDS011;62604;49.432;8.680;2023-07-08T12:14:48;5.05;;;4.65;;
10230;SDS011;62604;49.432;8.680;2023-07-08T12:17:16;6.05;;;5.10;;
10230;SDS011;62604;49.432;8.680;2023-07-08T12:19:43;5.35;;;4.95;;
10230;SDS011;62604;49.432;8.680;2023-07-08T12:22:13;5.85;;;5.25;;
10230;SDS011;62604;49.432;8.680;2023-07-08T12:24:40;7.30;;;4.90;;
10230;SDS011;62604;49.432;8.680;2023-07-08T12:27:10;5.00;;;4.60;;
10230;SDS011;62604;49.432;8.680;2023-07-08T12:29:37;5.22;;;4.72;;
10230;SDS011;62604;49.432;8.680;2023-07-08T12:32:08;5.28;;;4.88;;
10230;SDS011;62604;49.432;8.680;2023-07-08T12:34:38;6.03;;;5.22;;
10230;SDS011;62604;49.432;8.680;2023-07-08T12:37:08;5.43;;;4.75;;
10230;SDS011;62604;49.432;8.680;2023-07-08T12:39:38;10.50;;;5.43;;
10230;SDS011;62604;49.432;8.680;2023-07-08T12:42:08;5.78;;;5.28;;
10230;SDS011;62604;49.432;8.680;2023-07-08T12:44:38;7.25;;;5.28;;
10230;SDS011;62604;49.432;8.680;2023-07-08T12:47:10;5.97;;;4.88;;
10230;SDS011;62604;49.432;8.680;2023-07-08T12:49:37;5.78;;;5.25;;
10230;SDS011;62604;49.432;8.680;2023-07-08T12:52:17;5.57;;;5.07;;
10230;SDS011;62604;49.432;8.680;2023-07-08T12:54:49;6.30;;;5.03;;
10230;SDS011;62604;49.432;8.680;2023-07-08T12:57:16;5.13;;;4.72;;
10230;SDS011;62604;49.432;8.680;2023-07-08T12:59:44;5.18;;;4.85;;
10230;SDS011;62604;49.432;8.680;2023-07-08T13:02:15;5.63;;;5.07;;
10230;SDS011;62604;49.432;8.680;2023-07-08T13:04:44;6.15;;;4.75;;
10230;SDS011;62604;49.432;8.680;2023-07-08T13:07:16;5.22;;;4.82;;
10230;SDS011;62604;49.432;8.680;2023-07-08T13:10:00;5.63;;;4.93;;
10230;SDS011;62604;49.432;8.680;2023-07-08T13:12:27;5.22;;;4.82;;
10230;SDS011;62604;49.432;8.680;2023-07-08T13:14:55;5.20;;;4.80;;
10230;SDS011;62604;49.432;8.680;2023-07-08T13:17:27;7.60;;;5.35;;
10230;SDS011;62604;49.432;8.680;2023-07-08T13:19:54;6.53;;;5.10;;
10230;SDS011;62604;49.432;8.680;2023-07-08T13:22:22;5.88;;;5.38;;
10230;SDS011;62604;49.432;8.680;2023-07-08T13:24:58;12.20;;;5.15;;
10230;SDS011;62604;49.432;8.680;2023-07-08T13:27:26;5.10;;;4.72;;
10230;SDS011;62604;49.432;8.680;2023-07-08T13:29:53;7.65;;;5.13;;
10230;SDS011;62604;49.432;8.680;2023-07-08T13:32:42;5.05;;;4.55;;
10230;SDS011;62604;49.432;8.680;2023-07-08T13:35:20;4.97;;;4.57;;
10230;SDS011;62604;49.432;8.680;2023-07-08T13:37:48;5.30;;;4.80;;
10230;SDS011;62604;49.432;8.680;2023-07-08T13:40:16;4.57;;;4.18;;
10230;SDS011;62604;49.432;8.680;2023-07-08T13:42:46;5.30;;;4.80;;
10230;SDS011;62604;49.432;8.680;2023-07-08T13:45:15;5.57;;;4.90;;
10230;SDS011;62604;49.432;8.680;2023-07-08T13:47:45;5.22;;;4.82;;
10230;SDS011;62604;49.432;8.680;2023-07-08T13:50:26;5.63;;;5.20;;
10230;SDS011;62604;49.432;8.680;2023-07-08T13:52:57;8.23;;;4.78;;
10230;SDS011;62604;49.432;8.680;2023-07-08T13:55:24;5.40;;;4.55;;
10230;SDS011;62604;49.432;8.680;2023-07-08T13:57:57;8.20;;;4.88;;
10230;SDS011;62604;49.432;8.680;2023-07-08T14:00:25;8.60;;;4.90;;
10230;SDS011;62604;49.432;8.680;2023-07-08T14:02:57;5.00;;;4.50;;
10230;SDS011;62604;49.432;8.680;2023-07-08T14:05:24;4.65;;;4.25;;
10230;SDS011;62604;49.432;8.680;2023-07-08T14:07:50;5.43;;;4.55;;
10230;SDS011;62604;49.432;8.680;2023-07-08T14:10:17;8.15;;;4.70;;
10230;SDS011;62604;49.432;8.680;2023-07-08T14:12:44;4.57;;;4.18;;
10230;SDS011;62604;49.432;8.680;2023-07-08T14:15:11;4.22;;;3.83;;
10230;SDS011;62604;49.432;8.680;2023-07-08T14:17:38;4.72;;;4.32;;
10230;SDS011;62604;49.432;8.680;2023-07-08T14:20:09;11.05;;;4.32;;
10230;SDS011;62604;49.432;8.680;2023-07-08T14:22:38;5.07;;;4.07;;
10230;SDS011;62604;49.432;8.680;2023-07-08T14:25:06;4.25;;;3.85;;
10230;SDS011;62604;49.432;8.680;2023-07-08T14:27:35;4.15;;;3.60;;
10230;SDS011;62604;49.432;8.680;2023-07-08T14:30:02;4.35;;;3.95;;
10230;SDS011;62604;49.432;8.680;2023-07-08T14:32:30;6.28;;;4.47;;
10230;SDS011;62604;49.432;8.680;2023-07-08T14:34:59;7.88;;;4.18;;
10230;SDS011;62604;49.432;8.680;2023-07-08T14:37:42;4.53;;;4.07;;
10230;SDS011;62604;49.432;8.680;2023-07-08T14:40:12;3.97;;;3.67;;
10230;SDS011;62604;49.432;8.680;2023-07-08T14:42:46;4.80;;;3.83;;
10230;SDS011;62604;49.432;8.680;2023-07-08T14:45:13;4.57;;;4.10;;
10230;SDS011;62604;49.432;8.680;2023-07-08T14:47:40;5.18;;;3.70;;
10230;SDS011;62604;49.432;8.680;2023-07-08T14:50:11;3.80;;;3.53;;
10230;SDS011;62604;49.432;8.680;2023-07-08T14:52:40;3.97;;;3.67;;
10230;SDS011;62604;49.432;8.680;2023-07-08T14:55:09;6.13;;;3.80;;
10230;SDS011;62604;49.432;8.680;2023-07-08T14:57:40;3.53;;;3.22;;
10230;SDS011;62604;49.432;8.680;2023-07-08T15:00:12;4.15;;;3.75;;
10230;SDS011;62604;49.432;8.680;2023-07-08T15:02:40;3.92;;;3.63;;
10230;SDS011;62604;49.432;8.680;2023-07-08T15:05:11;3.50;;;3.20;;
10230;SDS011;62604;49.432;8.680;2023-07-08T15:07:42;3.67;;;3.38;;
10230;SDS011;62604;49.432;8.680;2023-07-08T15:10:09;6.47;;;3.47;;
10230;SDS011;62604;49.432;8.680;2023-07-08T15:12:36;4.55;;;3.70;;
10230;SDS011;62604;49.432;8.680;2023-07-08T15:15:04;3.22;;;3.03;;
10230;SDS011;62604;49.432;8.680;2023-07-08T15:17:39;3.63;;;3.33;;
10230;SDS011;62604;49.432;8.680;2023-07-08T15:20:08;3.90;;;3.55;;